Caddo Mills, TX (75135)

1:53 AM CST on November 23, 2014 (GMT -0600)
Rockwall / Hunt Counties | Change Station
CLOSE
Current Station
Personal Weather Station
Location: From The Caddo Mills Area, TX
Elevation: 474 ft
Nearby Weather Stations

Elev 474 ft 33.02 °N, 96.20 °W | Updated 16 seconds ago

Partly Cloudy
Partly Cloudy
58.0 °F
Feels Like 58.0 °F
N
0.0
Wind Variable Wind from ESE
Gusts 2.0 mph

Today
High -- | Low -- °F
--% Chance of Precip.
Yesterday
High -- | Low -- °F
Precip. -- in
7:02 AM 5:19 PM
New Moon, 1% visible
Pressure 29.64 in
Visibility 7.0 miles
Clouds Clear
Dew Point 58 °F
Humidity 100%
Rainfall 0.00 in
Snow Depth Not available.
UV 0 out of 12
Pollen .50 out of 12
Air Quality Not available.
Flu Activity Not available.
METAR KGVT 230735Z AUTO 00000KT 7SM CLR 15/13 A2964 RMK AO2

More Conditions Fewer Conditions

Pressure 29.64 in
Visibility 7.0 miles
Clouds Clear
Dew Point 58 °F
Humidity 100%
Rainfall 0.00 in
Snow Depth Not available.
UV 0 out of 12
Pollen .50 out of 12
Air Quality Not available.
Flu Activity Not available.
METAR KGVT 230735Z AUTO 00000KT 7SM CLR 15/13 A2964 RMK AO2

More Conditions Fewer Conditions

10-Day Weather Forecast

Almanac

Astronomy

Nov. 23, 2014 Rise Set
Actual Time
Civil Twilight
Nautical Twilight
Astronomical Twilight
Moon
Length of Visible Light
Length of Day
Tomorrow will be .
, % of the Moon is Illuminated

Today's Extremes

State Highs State Lows

Community

WunderPhotos

Upload Photos

1,773,024 photos uploaded!

WunderBlogs® & News

Nearby

Air Quality

  Air Quality AQ Index Pollutant
Not available.

Snow Depth

Station Depth Elevation

Earthquake Activity

City Distance Mag. Time & Date
Minimum magnitude displayed is 2.5.

Coastal Water Temperatures

Place Temperature

Nearby Weather Stations